THY6LZ LTCJ-LTFM
Flight info
| Callsign | THY6LZ |
|---|---|
| Flight time | N/A |
| Altitude | 36000 |
| Route | DYB UW73 GEM UL614 BAG UL605 YAVRU UA4 ERSEN |
| Aircraft | A320/M-SDE3FGHIRWY/LB1 |
Departure
| Time | 2026-04-29 02:27 |
|---|---|
| Airport | Batman Airport (LTCJ) |
Arrival
| Time | N/A |
|---|---|
| Airport | İstanbul Airport (LTFM) |
| Time | Latitude | Longitude | Altitude | Speed | Heading |
|---|---|---|---|---|---|
| 2026-04-29 01:37 | 37.94563 | 41.12077 | 1839 ft | 0 kts | 248° |
| 2026-04-29 01:40 | 37.94563 | 41.12078 | 1839 ft | 0 kts | 248° |
| 2026-04-29 02:13 | 37.94563 | 41.12077 | 1839 ft | 0 kts | 248° |
| 2026-04-29 02:13 | 37.94561 | 41.12075 | 1839 ft | 0 kts | 231° |
| 2026-04-29 02:13 | 37.94564 | 41.12081 | 1839 ft | 0 kts | 231° |
| 2026-04-29 02:14 | 37.94560 | 41.12077 | 1839 ft | 1 kts | 220° |
| 2026-04-29 02:14 | 37.94547 | 41.12070 | 1839 ft | 3 kts | 198° |
| 2026-04-29 02:14 | 37.94527 | 41.12078 | 1839 ft | 4 kts | 148° |
| 2026-04-29 02:14 | 37.94510 | 41.12107 | 1839 ft | 5 kts | 111° |
| 2026-04-29 02:15 | 37.94512 | 41.12153 | 1839 ft | 6 kts | 76° |
| 2026-04-29 02:15 | 37.94510 | 41.12209 | 1839 ft | 7 kts | 121° |
| 2026-04-29 02:15 | 37.94462 | 41.12231 | 1839 ft | 8 kts | 165° |
| 2026-04-29 02:15 | 37.94405 | 41.12256 | 1839 ft | 9 kts | 160° |
| 2026-04-29 02:16 | 37.94338 | 41.12286 | 1839 ft | 11 kts | 161° |
| 2026-04-29 02:16 | 37.94261 | 41.12321 | 1839 ft | 13 kts | 160° |
| 2026-04-29 02:16 | 37.94176 | 41.12361 | 1840 ft | 12 kts | 159° |
| 2026-04-29 02:16 | 37.94098 | 41.12373 | 1840 ft | 13 kts | 189° |
| 2026-04-29 02:17 | 37.94005 | 41.12328 | 1838 ft | 16 kts | 205° |
| 2026-04-29 02:17 | 37.93946 | 41.12294 | 1839 ft | 0 kts | 207° |
| 2026-04-29 02:17 | 37.93939 | 41.12290 | 1837 ft | 2 kts | 207° |
| 2026-04-29 02:17 | 37.93923 | 41.12280 | 1837 ft | 3 kts | 207° |
| 2026-04-29 02:18 | 37.93919 | 41.12277 | 1837 ft | 0 kts | 207° |
| 2026-04-29 02:19 | 37.93912 | 41.12273 | 1837 ft | 2 kts | 206° |
| 2026-04-29 02:19 | 37.93894 | 41.12262 | 1837 ft | 4 kts | 205° |
| 2026-04-29 02:19 | 37.93865 | 41.12244 | 1837 ft | 6 kts | 205° |
| 2026-04-29 02:19 | 37.93820 | 41.12217 | 1836 ft | 8 kts | 205° |
| 2026-04-29 02:20 | 37.93761 | 41.12181 | 1836 ft | 11 kts | 205° |
| 2026-04-29 02:20 | 37.93689 | 41.12138 | 1836 ft | 12 kts | 205° |
| 2026-04-29 02:20 | 37.93610 | 41.12091 | 1837 ft | 13 kts | 205° |
| 2026-04-29 02:20 | 37.93520 | 41.12036 | 1836 ft | 16 kts | 205° |
| 2026-04-29 02:21 | 37.93414 | 41.11973 | 1835 ft | 18 kts | 205° |
| 2026-04-29 02:21 | 37.93295 | 41.11903 | 1833 ft | 19 kts | 206° |
| 2026-04-29 02:21 | 37.93178 | 41.11831 | 1830 ft | 15 kts | 205° |
| 2026-04-29 02:21 | 37.93071 | 41.11769 | 1828 ft | 18 kts | 206° |
| 2026-04-29 02:22 | 37.92956 | 41.11697 | 1826 ft | 13 kts | 206° |
| 2026-04-29 02:22 | 37.92895 | 41.11666 | 1826 ft | 10 kts | 204° |
| 2026-04-29 02:22 | 37.92830 | 41.11628 | 1826 ft | 11 kts | 204° |
| 2026-04-29 02:22 | 37.92754 | 41.11585 | 1826 ft | 13 kts | 204° |
| 2026-04-29 02:23 | 37.92665 | 41.11534 | 1826 ft | 15 kts | 204° |
| 2026-04-29 02:23 | 37.92566 | 41.11479 | 1826 ft | 16 kts | 204° |
| 2026-04-29 02:23 | 37.92478 | 41.11416 | 1825 ft | 14 kts | 211° |
| 2026-04-29 02:23 | 37.92383 | 41.11348 | 1823 ft | 17 kts | 203° |
| 2026-04-29 02:24 | 37.92267 | 41.11283 | 1822 ft | 19 kts | 204° |
| 2026-04-29 02:24 | 37.92136 | 41.11207 | 1820 ft | 22 kts | 204° |
| 2026-04-29 02:24 | 37.92033 | 41.11141 | 1820 ft | 13 kts | 204° |
| 2026-04-29 02:25 | 37.91838 | 41.11031 | 1819 ft | 17 kts | 205° |
| 2026-04-29 02:25 | 37.91736 | 41.10971 | 1820 ft | 9 kts | 200° |
| 2026-04-29 02:25 | 37.91672 | 41.10978 | 1819 ft | 8 kts | 150° |
| 2026-04-29 02:25 | 37.91653 | 41.10935 | 1819 ft | 7 kts | 281° |
| 2026-04-29 02:26 | 37.91682 | 41.10915 | 1819 ft | 0 kts | 26° |
| 2026-04-29 02:26 | 37.91685 | 41.10917 | 1819 ft | 2 kts | 26° |
| 2026-04-29 02:26 | 37.91892 | 41.11047 | 1819 ft | 75 kts | 26° |
| 2026-04-29 02:26 | 37.92602 | 41.11469 | 1826 ft | 146 kts | 25° |
| 2026-04-29 02:27 | 37.93692 | 41.12098 | 1992 ft | 187 kts | 24° |
| 2026-04-29 02:27 | 37.94850 | 41.12741 | 2973 ft | 180 kts | 22° |
| 2026-04-29 02:27 | 37.95980 | 41.13374 | 3983 ft | 171 kts | 23° |
| 2026-04-29 02:27 | 37.97121 | 41.13711 | 4821 ft | 171 kts | 348° |
| 2026-04-29 02:28 | 37.98105 | 41.12899 | 5184 ft | 181 kts | 300° |
| 2026-04-29 02:28 | 37.98273 | 41.11268 | 5393 ft | 204 kts | 253° |
| 2026-04-29 02:28 | 37.97459 | 41.09728 | 5791 ft | 219 kts | 224° |
| 2026-04-29 02:28 | 37.96221 | 41.08583 | 6423 ft | 223 kts | 214° |
| 2026-04-29 02:29 | 37.95093 | 41.07158 | 6741 ft | 241 kts | 247° |
| 2026-04-29 02:29 | 37.94741 | 41.05010 | 7047 ft | 261 kts | 267° |
| 2026-04-29 02:29 | 37.94616 | 41.02638 | 7532 ft | 276 kts | 268° |
| 2026-04-29 02:29 | 37.94494 | 41.00182 | 8292 ft | 281 kts | 267° |
| 2026-04-29 02:30 | 37.94345 | 40.97699 | 9092 ft | 284 kts | 266° |
| 2026-04-29 02:30 | 37.94161 | 40.95156 | 9894 ft | 288 kts | 265° |
| 2026-04-29 02:30 | 37.93957 | 40.92625 | 10379 ft | 301 kts | 265° |
| 2026-04-29 02:30 | 37.93719 | 40.89847 | 10559 ft | 325 kts | 265° |
| 2026-04-29 02:31 | 37.93457 | 40.86867 | 10704 ft | 347 kts | 265° |
| 2026-04-29 02:31 | 37.93186 | 40.83822 | 11139 ft | 356 kts | 264° |
| 2026-04-29 02:31 | 37.92905 | 40.80691 | 11740 ft | 360 kts | 264° |
| 2026-04-29 02:31 | 37.92618 | 40.77528 | 12365 ft | 363 kts | 264° |
| 2026-04-29 02:32 | 37.92325 | 40.74330 | 13005 ft | 366 kts | 264° |
| 2026-04-29 02:32 | 37.92025 | 40.71067 | 13650 ft | 370 kts | 264° |
| 2026-04-29 02:32 | 37.91728 | 40.67827 | 14211 ft | 373 kts | 264° |
| 2026-04-29 02:32 | 37.91436 | 40.64595 | 14754 ft | 375 kts | 264° |
| 2026-04-29 02:33 | 37.91134 | 40.61266 | 15317 ft | 377 kts | 264° |
| 2026-04-29 02:33 | 37.90831 | 40.57959 | 15846 ft | 379 kts | 264° |
| 2026-04-29 02:33 | 37.90522 | 40.54625 | 16393 ft | 382 kts | 264° |
| 2026-04-29 02:33 | 37.90214 | 40.51277 | 16940 ft | 384 kts | 264° |
| 2026-04-29 02:34 | 37.89904 | 40.47912 | 17494 ft | 386 kts | 264° |
| 2026-04-29 02:34 | 37.89592 | 40.44524 | 18044 ft | 389 kts | 264° |
| 2026-04-29 02:34 | 37.89277 | 40.41113 | 18540 ft | 392 kts | 263° |
| 2026-04-29 02:34 | 37.88958 | 40.37678 | 19016 ft | 394 kts | 263° |
| 2026-04-29 02:35 | 37.88632 | 40.34217 | 19515 ft | 397 kts | 263° |
| 2026-04-29 02:35 | 37.88302 | 40.30742 | 19954 ft | 399 kts | 263° |
| 2026-04-29 02:35 | 37.87969 | 40.27241 | 20428 ft | 402 kts | 263° |
| 2026-04-29 02:35 | 37.87709 | 40.23710 | 20871 ft | 404 kts | 269° |
| 2026-04-29 02:36 | 37.87894 | 40.20155 | 21298 ft | 407 kts | 279° |
| 2026-04-29 02:36 | 37.88578 | 40.16678 | 21711 ft | 409 kts | 289° |
| 2026-04-29 02:36 | 37.89572 | 40.13292 | 22129 ft | 412 kts | 290° |
| 2026-04-29 02:36 | 37.90570 | 40.09880 | 22538 ft | 414 kts | 290° |
| 2026-04-29 02:37 | 37.91563 | 40.06444 | 22968 ft | 416 kts | 289° |
| 2026-04-29 02:37 | 37.92559 | 40.02990 | 23384 ft | 419 kts | 289° |
| 2026-04-29 02:37 | 37.93560 | 39.99514 | 23741 ft | 421 kts | 289° |
| 2026-04-29 02:37 | 37.94566 | 39.96024 | 24079 ft | 423 kts | 289° |
| 2026-04-29 02:38 | 37.95575 | 39.92519 | 24413 ft | 425 kts | 289° |
| 2026-04-29 02:38 | 37.96587 | 39.88992 | 24747 ft | 427 kts | 289° |
| 2026-04-29 02:38 | 37.97604 | 39.85449 | 25091 ft | 428 kts | 289° |
| 2026-04-29 02:38 | 37.98280 | 39.83101 | 25300 ft | 430 kts | 289° |